CW8783 Weather Reports


Display with metric or nautical units.
time (UTC)temp
F
wind
direction
speed
MPH
gust
MPH
rain 1hr
in
rain 24hr
in
rain mn
in
humidity
%
barometer
mb
20210926020332 63 227 0.0 0.0 0.00 0.01 0.01 92 1021.9
20210926010333 63 227 0.0 0.0 0.00 0.01 0.01 90 1021.8
20210926000333 63 227 0.0 0.0 0.00 0.01 0.01 90 1022.0
20210925230333 64 227 0.0 0.0 0.01 0.01 0.01 89 1022.3
20210925220333 65 227 0.0 0.0 0.00 0.00 0.00 86 1022.2
20210925210333 66 227 0.0 0.0 0.00 0.00 0.00 83 1022.0
20210925200332 67 227 0.0 0.0 0.00 0.00 0.00 81 1021.9
20210925190332 67 227 0.0 1.0 0.00 0.00 0.00 80 1021.5
20210925180332 69 227 0.0 0.0 0.00 0.00 0.00 77 1020.6
20210925170332 71 227 0.0 0.0 0.00 0.00 0.00 72 1020.3
20210925160331 73 227 0.0 6.0 0.00 0.00 0.00 66 1020.0
20210925150331 76 225 0.0 7.0 0.00 0.00 0.00 60 1019.6
20210925140331 77 229 3.0 12.0 0.00 0.00 0.00 57 1019.8
20210925130332 77 213 2.0 8.0 0.00 0.00 0.00 55 1020.1
20210925120330 77 240 2.0 7.0 0.00 0.00 0.00 55 1020.1
20210925110330 73 173 0.0 6.0 0.00 0.00 0.00 55 1020.8
20210925100330 70 171 0.0 5.0 0.00 0.00 0.00 58 1021.6
20210925090329 68 84 0.0 7.0 0.00 0.00 0.00 62 1022.0
20210925080329 65 63 1.0 3.0 0.00 0.00 0.00 67 1022.2
20210925070329 61 59 0.0 3.0 0.00 0.00 0.00 71 1021.9
20210925060329 59 56 0.0 0.0 0.00 0.00 0.00 74 1021.2
20210925050328 58 56 0.0 3.0 0.00 0.00 0.00 76 1021.1
20210925040328 60 53 0.0 0.0 0.00 0.00 0.00 73 1021.0
20210925030328 61 54 0.0 3.0 0.00 0.00 0.00 71 1020.9